sensor_id;sensor_type;location;lat;lon;timestamp;pressure;altitude;pressure_sealevel;temperature;humidity
65760;BME280;52496;51.082;5.066;2022-07-30T00:01:49;101743.31;;;16.69;76.12
65760;BME280;52496;51.082;5.066;2022-07-30T00:04:19;101745.59;;;16.59;76.61
65760;BME280;52496;51.082;5.066;2022-07-30T00:06:50;101743.69;;;16.52;77.02
65760;BME280;52496;51.082;5.066;2022-07-30T00:09:20;101747.19;;;16.46;77.27
65760;BME280;52496;51.082;5.066;2022-07-30T00:11:51;101749.66;;;16.41;77.19
65760;BME280;52496;51.082;5.066;2022-07-30T00:14:21;101753.16;;;16.35;77.66
65760;BME280;52496;51.082;5.066;2022-07-30T00:16:52;101746.88;;;16.28;78.02
65760;BME280;52496;51.082;5.066;2022-07-30T00:19:23;101743.97;;;16.23;77.68
65760;BME280;52496;51.082;5.066;2022-07-30T00:21:53;101744.78;;;16.17;77.44
65760;BME280;52496;51.082;5.066;2022-07-30T00:24:24;101741.81;;;16.12;78.05
65760;BME280;52496;51.082;5.066;2022-07-30T00:26:54;101741.97;;;16.03;77.72
65760;BME280;52496;51.082;5.066;2022-07-30T00:29:25;101745.47;;;15.97;78.41
65760;BME280;52496;51.082;5.066;2022-07-30T00:31:55;101741.06;;;15.90;78.59
65760;BME280;52496;51.082;5.066;2022-07-30T00:34:26;101738.34;;;15.83;78.48
65760;BME280;52496;51.082;5.066;2022-07-30T00:36:56;101733.72;;;15.77;78.89
65760;BME280;52496;51.082;5.066;2022-07-30T00:39:27;101736.19;;;15.72;79.03
65760;BME280;52496;51.082;5.066;2022-07-30T00:42:01;101735.06;;;15.66;78.92
65760;BME280;52496;51.082;5.066;2022-07-30T00:44:32;101735.84;;;15.60;78.82
65760;BME280;52496;51.082;5.066;2022-07-30T00:47:02;101738.28;;;15.55;79.54
65760;BME280;52496;51.082;5.066;2022-07-30T00:49:33;101736.38;;;15.49;80.14
65760;BME280;52496;51.082;5.066;2022-07-30T00:52:04;101731.97;;;15.41;79.63
65760;BME280;52496;51.082;5.066;2022-07-30T00:54:34;101732.75;;;15.35;80.07
65760;BME280;52496;51.082;5.066;2022-07-30T00:57:05;101739.56;;;15.31;79.73
65760;BME280;52496;51.082;5.066;2022-07-30T00:59:35;101731.41;;;15.24;79.57
65760;BME280;52496;51.082;5.066;2022-07-30T01:02:05;101739.03;;;15.21;80.27
65760;BME280;52496;51.082;5.066;2022-07-30T01:04:36;101739.81;;;15.14;80.73
65760;BME280;52496;51.082;5.066;2022-07-30T01:07:06;101735.19;;;15.08;80.61
65760;BME280;52496;51.082;5.066;2022-07-30T01:09:37;101732.22;;;15.03;81.27
65760;BME280;52496;51.082;5.066;2022-07-30T01:12:08;101728.47;;;14.98;81.17
65760;BME280;52496;51.082;5.066;2022-07-30T01:14:39;101738.16;;;14.92;81.38
65760;BME280;52496;51.082;5.066;2022-07-30T01:17:10;101727.94;;;14.87;81.93
65760;BME280;52496;51.082;5.066;2022-07-30T01:19:41;101731.22;;;14.83;81.66
65760;BME280;52496;51.082;5.066;2022-07-30T01:25:23;101727.97;;;14.73;82.24
65760;BME280;52496;51.082;5.066;2022-07-30T01:28:02;101732.09;;;14.68;82.28
65760;BME280;52496;51.082;5.066;2022-07-30T01:30:39;101725.22;;;14.66;82.62
65760;BME280;52496;51.082;5.066;2022-07-30T01:33:13;101727.47;;;14.62;82.88
65760;BME280;52496;51.082;5.066;2022-07-30T01:35:46;101735.09;;;14.59;83.52
65760;BME280;52496;51.082;5.066;2022-07-30T01:38:20;101730.91;;;14.56;83.37
65760;BME280;52496;51.082;5.066;2022-07-30T01:40:52;101734.19;;;14.52;83.60
65760;BME280;52496;51.082;5.066;2022-07-30T01:43:24;101730.81;;;14.50;83.43
65760;BME280;52496;51.082;5.066;2022-07-30T01:45:56;101726.63;;;14.47;83.65
65760;BME280;52496;51.082;5.066;2022-07-30T01:48:28;101729.03;;;14.42;83.41
65760;BME280;52496;51.082;5.066;2022-07-30T01:51:01;101733.97;;;14.38;84.51
65760;BME280;52496;51.082;5.066;2022-07-30T01:53:35;101727.47;;;14.33;84.54
65760;BME280;52496;51.082;5.066;2022-07-30T01:56:08;101735.91;;;14.30;84.92
65760;BME280;52496;51.082;5.066;2022-07-30T01:58:41;101738.97;;;14.27;84.30
65760;BME280;52496;51.082;5.066;2022-07-30T02:01:12;101736.66;;;14.23;84.98
65760;BME280;52496;51.082;5.066;2022-07-30T02:03:42;101730.00;;;14.19;85.06
65760;BME280;52496;51.082;5.066;2022-07-30T02:06:18;101734.94;;;14.16;85.46
65760;BME280;52496;51.082;5.066;2022-07-30T02:08:53;101731.56;;;14.14;85.21
65760;BME280;52496;51.082;5.066;2022-07-30T02:11:24;101736.50;;;14.10;85.24
65760;BME280;52496;51.082;5.066;2022-07-30T02:14:23;101737.69;;;14.08;85.15
65760;BME280;52496;51.082;5.066;2022-07-30T02:16:57;101744.47;;;14.04;84.04
65760;BME280;52496;51.082;5.066;2022-07-30T02:19:37;101743.00;;;14.01;83.74
65760;BME280;52496;51.082;5.066;2022-07-30T02:22:12;101745.03;;;13.99;85.24
65760;BME280;52496;51.082;5.066;2022-07-30T02:24:46;101742.91;;;13.94;86.34
65760;BME280;52496;51.082;5.066;2022-07-30T02:27:23;101748.44;;;13.93;87.04
65760;BME280;52496;51.082;5.066;2022-07-30T02:29:58;101744.09;;;13.92;87.20
65760;BME280;52496;51.082;5.066;2022-07-30T02:32:32;101737.91;;;13.91;86.95
65760;BME280;52496;51.082;5.066;2022-07-30T02:35:08;101742.44;;;13.91;86.43
65760;BME280;52496;51.082;5.066;2022-07-30T02:37:41;101749.84;;;13.89;86.68
65760;BME280;52496;51.082;5.066;2022-07-30T02:40:15;101746.50;;;13.87;86.10
65760;BME280;52496;51.082;5.066;2022-07-30T02:42:49;101749.38;;;13.85;85.96
65760;BME280;52496;51.082;5.066;2022-07-30T02:45:22;101747.06;;;13.82;85.28
65760;BME280;52496;51.082;5.066;2022-07-30T02:47:57;101758.19;;;13.79;85.77
65760;BME280;52496;51.082;5.066;2022-07-30T02:50:30;101763.09;;;13.75;86.29
65760;BME280;52496;51.082;5.066;2022-07-30T02:53:04;101763.63;;;13.71;86.10
65760;BME280;52496;51.082;5.066;2022-07-30T02:55:37;101757.78;;;13.67;86.02
65760;BME280;52496;51.082;5.066;2022-07-30T02:58:09;101761.00;;;13.63;85.88
65760;BME280;52496;51.082;5.066;2022-07-30T03:00:41;101759.34;;;13.62;86.88
65760;BME280;52496;51.082;5.066;2022-07-30T03:03:12;101753.97;;;13.62;87.52
65760;BME280;52496;51.082;5.066;2022-07-30T03:05:43;101757.84;;;13.59;86.58
65760;BME280;52496;51.082;5.066;2022-07-30T03:08:15;101753.88;;;13.55;86.26
65760;BME280;52496;51.082;5.066;2022-07-30T03:10:47;101751.53;;;13.52;86.27
65760;BME280;52496;51.082;5.066;2022-07-30T03:13:19;101756.25;;;13.50;85.93
65760;BME280;52496;51.082;5.066;2022-07-30T03:15:51;101761.63;;;13.50;86.16
65760;BME280;52496;51.082;5.066;2022-07-30T03:18:22;101765.34;;;13.49;87.06
65760;BME280;52496;51.082;5.066;2022-07-30T03:20:55;101763.84;;;13.46;86.98
65760;BME280;52496;51.082;5.066;2022-07-30T03:23:28;101756.31;;;13.42;87.11
65760;BME280;52496;51.082;5.066;2022-07-30T03:26:04;101769.28;;;13.38;87.45
65760;BME280;52496;51.082;5.066;2022-07-30T03:28:37;101751.66;;;13.36;87.23
65760;BME280;52496;51.082;5.066;2022-07-30T03:31:12;101756.41;;;13.34;87.13
65760;BME280;52496;51.082;5.066;2022-07-30T03:33:43;101753.06;;;13.31;87.57
65760;BME280;52496;51.082;5.066;2022-07-30T03:36:14;101756.94;;;13.29;87.88
65760;BME280;52496;51.082;5.066;2022-07-30T03:38:46;101767.88;;;13.27;88.31
65760;BME280;52496;51.082;5.066;2022-07-30T03:41:18;101762.66;;;13.26;87.84
65760;BME280;52496;51.082;5.066;2022-07-30T03:43:49;101764.84;;;13.22;87.34
65760;BME280;52496;51.082;5.066;2022-07-30T03:46:21;101766.88;;;13.20;88.73
65760;BME280;52496;51.082;5.066;2022-07-30T03:48:52;101766.88;;;13.20;88.69
65760;BME280;52496;51.082;5.066;2022-07-30T03:51:24;101770.56;;;13.19;87.58
65760;BME280;52496;51.082;5.066;2022-07-30T03:53:55;101774.28;;;13.18;87.21
65760;BME280;52496;51.082;5.066;2022-07-30T03:56:25;101771.75;;;13.17;87.46
65760;BME280;52496;51.082;5.066;2022-07-30T03:58:56;101779.00;;;13.16;88.29
65760;BME280;52496;51.082;5.066;2022-07-30T04:01:27;101779.66;;;13.18;88.57
65760;BME280;52496;51.082;5.066;2022-07-30T04:04:07;101775.13;;;13.19;88.70
65760;BME280;52496;51.082;5.066;2022-07-30T04:06:39;101778.47;;;13.21;88.13
65760;BME280;52496;51.082;5.066;2022-07-30T04:09:10;101786.34;;;13.22;87.70
65760;BME280;52496;51.082;5.066;2022-07-30T04:11:41;101783.66;;;13.22;88.07
65760;BME280;52496;51.082;5.066;2022-07-30T04:14:11;101782.50;;;13.25;87.99
65760;BME280;52496;51.082;5.066;2022-07-30T04:17:03;101789.69;;;13.24;87.94
65760;BME280;52496;51.082;5.066;2022-07-30T04:19:55;101784.31;;;13.24;88.11
65760;BME280;52496;51.082;5.066;2022-07-30T04:22:27;101789.03;;;13.22;88.25
65760;BME280;52496;51.082;5.066;2022-07-30T04:25:01;101789.69;;;13.24;88.34
65760;BME280;52496;51.082;5.066;2022-07-30T04:27:33;101791.38;;;13.25;87.83
65760;BME280;52496;51.082;5.066;2022-07-30T04:30:04;101801.78;;;13.28;89.16
65760;BME280;52496;51.082;5.066;2022-07-30T04:32:35;101801.06;;;13.35;89.55
65760;BME280;52496;51.082;5.066;2022-07-30T04:35:06;101811.09;;;13.41;88.79
65760;BME280;52496;51.082;5.066;2022-07-30T04:37:37;101807.66;;;13.47;88.94
65760;BME280;52496;51.082;5.066;2022-07-30T04:40:08;101811.66;;;13.51;89.15
65760;BME280;52496;51.082;5.066;2022-07-30T04:42:39;101815.50;;;13.57;89.00
65760;BME280;52496;51.082;5.066;2022-07-30T04:45:09;101820.34;;;13.61;89.83
65760;BME280;52496;51.082;5.066;2022-07-30T04:47:40;101829.69;;;13.65;90.11
65760;BME280;52496;51.082;5.066;2022-07-30T04:50:11;101832.69;;;13.70;90.54
65760;BME280;52496;51.082;5.066;2022-07-30T04:52:42;101838.38;;;13.75;89.97
65760;BME280;52496;51.082;5.066;2022-07-30T04:55:13;101837.16;;;13.78;89.81
65760;BME280;52496;51.082;5.066;2022-07-30T04:57:45;101842.81;;;13.83;90.62
65760;BME280;52496;51.082;5.066;2022-07-30T05:00:17;101832.53;;;13.87;90.93
65760;BME280;52496;51.082;5.066;2022-07-30T05:02:49;101831.19;;;13.91;90.80
65760;BME280;52496;51.082;5.066;2022-07-30T05:05:21;101834.78;;;13.98;90.57
65760;BME280;52496;51.082;5.066;2022-07-30T05:07:54;101844.25;;;14.09;90.05
65760;BME280;52496;51.082;5.066;2022-07-30T05:10:24;101835.94;;;14.18;90.83
65760;BME280;52496;51.082;5.066;2022-07-30T05:12:55;101834.19;;;14.26;90.34
65760;BME280;52496;51.082;5.066;2022-07-30T05:15:25;101831.78;;;14.31;89.88
65760;BME280;52496;51.082;5.066;2022-07-30T05:17:57;101829.34;;;14.36;90.22
65760;BME280;52496;51.082;5.066;2022-07-30T05:20:28;101832.63;;;14.46;89.84
65760;BME280;52496;51.082;5.066;2022-07-30T05:22:58;101817.41;;;14.53;90.12
65760;BME280;52496;51.082;5.066;2022-07-30T05:25:29;101835.34;;;14.61;90.02
65760;BME280;52496;51.082;5.066;2022-07-30T05:27:59;101835.06;;;14.71;90.46
65760;BME280;52496;51.082;5.066;2022-07-30T05:30:30;101835.97;;;14.78;90.88
65760;BME280;52496;51.082;5.066;2022-07-30T05:33:00;101831.84;;;14.82;90.91
65760;BME280;52496;51.082;5.066;2022-07-30T05:35:31;101836.09;;;14.91;91.43
65760;BME280;52496;51.082;5.066;2022-07-30T05:38:01;101838.31;;;15.02;92.09
65760;BME280;52496;51.082;5.066;2022-07-30T05:40:32;101842.56;;;15.11;92.05
65760;BME280;52496;51.082;5.066;2022-07-30T05:43:02;101846.81;;;15.21;92.11
65760;BME280;52496;51.082;5.066;2022-07-30T05:45:33;101842.16;;;15.29;92.18
65760;BME280;52496;51.082;5.066;2022-07-30T05:48:03;101840.16;;;15.38;92.07
65760;BME280;52496;51.082;5.066;2022-07-30T05:50:34;101848.75;;;15.48;91.92
65760;BME280;52496;51.082;5.066;2022-07-30T05:53:04;101840.56;;;15.56;91.56
65760;BME280;52496;51.082;5.066;2022-07-30T05:55:35;101845.63;;;15.66;91.66
65760;BME280;52496;51.082;5.066;2022-07-30T05:58:05;101843.66;;;15.75;91.52
65760;BME280;52496;51.082;5.066;2022-07-30T06:00:36;101844.16;;;15.85;91.37
65760;BME280;52496;51.082;5.066;2022-07-30T06:03:07;101849.41;;;15.93;91.14
65760;BME280;52496;51.082;5.066;2022-07-30T06:05:37;101844.06;;;16.00;91.31
65760;BME280;52496;51.082;5.066;2022-07-30T06:08:08;101847.28;;;16.10;91.28
65760;BME280;52496;51.082;5.066;2022-07-30T06:10:39;101848.59;;;16.21;90.76
65760;BME280;52496;51.082;5.066;2022-07-30T06:13:10;101843.25;;;16.34;90.61
65760;BME280;52496;51.082;5.066;2022-07-30T06:15:40;101847.50;;;16.43;90.49
65760;BME280;52496;51.082;5.066;2022-07-30T06:18:10;101850.44;;;16.55;90.55
65760;BME280;52496;51.082;5.066;2022-07-30T06:20:41;101843.00;;;16.64;89.34
65760;BME280;52496;51.082;5.066;2022-07-30T06:23:11;101850.56;;;16.75;89.06
65760;BME280;52496;51.082;5.066;2022-07-30T06:25:42;101860.63;;;16.88;89.29
65760;BME280;52496;51.082;5.066;2022-07-30T06:28:13;101858.81;;;17.02;88.83
65760;BME280;52496;51.082;5.066;2022-07-30T06:30:44;101866.97;;;17.15;87.78
65760;BME280;52496;51.082;5.066;2022-07-30T06:33:15;101862.44;;;17.29;87.10
65760;BME280;52496;51.082;5.066;2022-07-30T06:35:46;101854.53;;;17.40;86.85
65760;BME280;52496;51.082;5.066;2022-07-30T06:38:18;101862.69;;;17.54;86.06
65760;BME280;52496;51.082;5.066;2022-07-30T06:40:48;101856.88;;;17.70;85.21
65760;BME280;52496;51.082;5.066;2022-07-30T06:43:19;101865.88;;;17.84;84.47
65760;BME280;52496;51.082;5.066;2022-07-30T06:45:50;101867.94;;;17.95;83.79
65760;BME280;52496;51.082;5.066;2022-07-30T06:48:20;101864.81;;;18.11;83.87
65760;BME280;52496;51.082;5.066;2022-07-30T06:50:51;101872.91;;;18.31;83.02
65760;BME280;52496;51.082;5.066;2022-07-30T06:53:22;101872.88;;;18.51;81.58
65760;BME280;52496;51.082;5.066;2022-07-30T06:55:52;101864.50;;;18.66;81.06
65760;BME280;52496;51.082;5.066;2022-07-30T06:58:23;101869.91;;;18.79;79.88
65760;BME280;52496;51.082;5.066;2022-07-30T07:00:53;101873.59;;;18.92;78.42
65760;BME280;52496;51.082;5.066;2022-07-30T07:03:23;101875.03;;;19.01;77.92
65760;BME280;52496;51.082;5.066;2022-07-30T07:05:55;101871.84;;;19.11;77.84
65760;BME280;52496;51.082;5.066;2022-07-30T07:08:25;101868.50;;;19.15;77.71
65760;BME280;52496;51.082;5.066;2022-07-30T07:10:56;101871.31;;;19.34;78.05
65760;BME280;52496;51.082;5.066;2022-07-30T07:13:27;101874.13;;;19.52;76.34
65760;BME280;52496;51.082;5.066;2022-07-30T07:15:58;101874.47;;;19.62;76.11
65760;BME280;52496;51.082;5.066;2022-07-30T07:18:28;101871.09;;;19.74;74.36
65760;BME280;52496;51.082;5.066;2022-07-30T07:20:59;101868.69;;;19.84;73.58
65760;BME280;52496;51.082;5.066;2022-07-30T07:23:29;101868.31;;;20.05;73.06
65760;BME280;52496;51.082;5.066;2022-07-30T07:26:00;101870.19;;;20.30;72.71
65760;BME280;52496;51.082;5.066;2022-07-30T07:28:30;101876.22;;;20.50;70.84
65760;BME280;52496;51.082;5.066;2022-07-30T07:31:01;101869.78;;;20.70;70.38
65760;BME280;52496;51.082;5.066;2022-07-30T07:33:32;101884.13;;;20.77;68.02
65760;BME280;52496;51.082;5.066;2022-07-30T07:36:02;101877.94;;;20.88;67.66
65760;BME280;52496;51.082;5.066;2022-07-30T07:38:33;101878.28;;;21.10;68.22
65760;BME280;52496;51.082;5.066;2022-07-30T07:41:04;101883.97;;;21.39;65.34
65760;BME280;52496;51.082;5.066;2022-07-30T07:43:34;101893.28;;;21.61;59.71
65760;BME280;52496;51.082;5.066;2022-07-30T07:46:05;101894.97;;;21.74;61.04
65760;BME280;52496;51.082;5.066;2022-07-30T07:48:36;101891.56;;;21.90;61.17
65760;BME280;52496;51.082;5.066;2022-07-30T07:51:06;101886.38;;;22.01;61.11
65760;BME280;52496;51.082;5.066;2022-07-30T07:53:36;101875.25;;;22.14;60.99
65760;BME280;52496;51.082;5.066;2022-07-30T07:56:07;101879.31;;;22.23;60.35
65760;BME280;52496;51.082;5.066;2022-07-30T07:58:37;101883.13;;;22.34;59.54
65760;BME280;52496;51.082;5.066;2022-07-30T08:01:08;101879.78;;;22.43;59.10
65760;BME280;52496;51.082;5.066;2022-07-30T08:03:39;101874.66;;;22.59;58.59
65760;BME280;52496;51.082;5.066;2022-07-30T08:06:10;101876.53;;;22.70;57.78
65760;BME280;52496;51.082;5.066;2022-07-30T08:08:40;101878.19;;;22.83;58.28
65760;BME280;52496;51.082;5.066;2022-07-30T08:11:10;101875.91;;;22.92;56.92
65760;BME280;52496;51.082;5.066;2022-07-30T08:13:41;101875.03;;;23.03;56.33
65760;BME280;52496;51.082;5.066;2022-07-30T08:16:12;101871.56;;;23.19;55.48
65760;BME280;52496;51.082;5.066;2022-07-30T08:18:43;101872.25;;;23.43;56.29
65760;BME280;52496;51.082;5.066;2022-07-30T08:21:14;101878.34;;;23.62;54.50
65760;BME280;52496;51.082;5.066;2022-07-30T08:23:44;101871.16;;;23.73;53.49
65760;BME280;52496;51.082;5.066;2022-07-30T08:26:15;101873.00;;;23.84;53.56
65760;BME280;52496;51.082;5.066;2022-07-30T08:28:46;101872.50;;;23.87;52.56
65760;BME280;52496;51.082;5.066;2022-07-30T08:31:16;101870.19;;;23.96;52.70
65760;BME280;52496;51.082;5.066;2022-07-30T08:33:47;101870.00;;;24.02;52.54
65760;BME280;52496;51.082;5.066;2022-07-30T08:36:17;101865.00;;;24.16;51.73
65760;BME280;52496;51.082;5.066;2022-07-30T08:38:48;101865.19;;;24.26;51.77
65760;BME280;52496;51.082;5.066;2022-07-30T08:41:19;101861.53;;;24.38;51.84
65760;BME280;52496;51.082;5.066;2022-07-30T08:43:50;101861.25;;;24.56;52.10
65760;BME280;52496;51.082;5.066;2022-07-30T08:46:23;101865.03;;;24.77;51.19
65760;BME280;52496;51.082;5.066;2022-07-30T08:48:54;101868.31;;;24.96;50.15
65760;BME280;52496;51.082;5.066;2022-07-30T08:51:25;101865.66;;;25.06;48.89
65760;BME280;52496;51.082;5.066;2022-07-30T08:53:56;101870.72;;;25.14;47.86
65760;BME280;52496;51.082;5.066;2022-07-30T08:56:27;101861.72;;;25.19;48.20
65760;BME280;52496;51.082;5.066;2022-07-30T08:58:59;101870.06;;;25.29;48.50
65760;BME280;52496;51.082;5.066;2022-07-30T09:01:30;101864.31;;;25.31;47.19
65760;BME280;52496;51.082;5.066;2022-07-30T09:04:00;101866.59;;;25.39;46.63
65760;BME280;52496;51.082;5.066;2022-07-30T09:06:31;101867.84;;;25.53;46.00
65760;BME280;52496;51.082;5.066;2022-07-30T09:09:01;101870.13;;;25.67;46.06
65760;BME280;52496;51.082;5.066;2022-07-30T09:11:35;101877.19;;;25.90;45.56
65760;BME280;52496;51.082;5.066;2022-07-30T09:14:11;101880.34;;;26.08;43.86
65760;BME280;52496;51.082;5.066;2022-07-30T09:16:43;101882.88;;;26.15;44.09
65760;BME280;52496;51.082;5.066;2022-07-30T09:19:18;101879.84;;;26.17;43.32
65760;BME280;52496;51.082;5.066;2022-07-30T09:21:58;101881.28;;;26.24;42.87
65760;BME280;52496;51.082;5.066;2022-07-30T09:24:40;101889.84;;;26.38;43.19
65760;BME280;52496;51.082;5.066;2022-07-30T09:27:12;101889.56;;;26.35;43.08
65760;BME280;52496;51.082;5.066;2022-07-30T09:29:42;101893.94;;;26.30;42.31
65760;BME280;52496;51.082;5.066;2022-07-30T09:32:13;101870.03;;;26.26;43.30
65760;BME280;52496;51.082;5.066;2022-07-30T09:34:44;101874.75;;;26.30;42.83
65760;BME280;52496;51.082;5.066;2022-07-30T09:39:45;101882.22;;;26.45;43.26
65760;BME280;52496;51.082;5.066;2022-07-30T09:42:25;101885.63;;;26.58;42.67
65760;BME280;52496;51.082;5.066;2022-07-30T09:45:05;101885.69;;;26.73;42.17
65760;BME280;52496;51.082;5.066;2022-07-30T09:47:43;101873.69;;;26.94;42.23
65760;BME280;52496;51.082;5.066;2022-07-30T09:50:16;101876.00;;;27.18;42.64
65760;BME280;52496;51.082;5.066;2022-07-30T09:52:47;101876.03;;;27.33;40.71
65760;BME280;52496;51.082;5.066;2022-07-30T09:55:34;101872.19;;;27.55;40.39
65760;BME280;52496;51.082;5.066;2022-07-30T09:58:05;101858.72;;;27.68;40.19
65760;BME280;52496;51.082;5.066;2022-07-30T10:00:37;101860.66;;;27.78;40.36
65760;BME280;52496;51.082;5.066;2022-07-30T10:03:22;101867.25;;;28.03;38.70
65760;BME280;52496;51.082;5.066;2022-07-30T10:05:56;101863.94;;;28.16;39.12
65760;BME280;52496;51.082;5.066;2022-07-30T10:08:47;101864.19;;;28.20;38.89
65760;BME280;52496;51.082;5.066;2022-07-30T10:11:22;101860.28;;;28.36;38.08
65760;BME280;52496;51.082;5.066;2022-07-30T10:13:55;101868.31;;;28.22;38.53
65760;BME280;52496;51.082;5.066;2022-07-30T10:16:28;101854.25;;;28.34;37.22
65760;BME280;52496;51.082;5.066;2022-07-30T10:18:58;101850.38;;;28.55;37.88
65760;BME280;52496;51.082;5.066;2022-07-30T10:21:29;101848.94;;;28.68;37.50
65760;BME280;52496;51.082;5.066;2022-07-30T10:24:00;101855.16;;;28.94;36.97
65760;BME280;52496;51.082;5.066;2022-07-30T10:26:34;101857.56;;;29.01;36.62
65760;BME280;52496;51.082;5.066;2022-07-30T10:29:06;101867.97;;;29.14;37.16
65760;BME280;52496;51.082;5.066;2022-07-30T10:31:36;101870.38;;;29.26;37.02
65760;BME280;52496;51.082;5.066;2022-07-30T10:34:07;101865.44;;;29.67;36.84
65760;BME280;52496;51.082;5.066;2022-07-30T10:36:43;101861.69;;;30.11;36.19
65760;BME280;52496;51.082;5.066;2022-07-30T10:39:20;101867.81;;;30.37;35.60
65760;BME280;52496;51.082;5.066;2022-07-30T10:44:45;101855.72;;;30.52;34.57
65760;BME280;52496;51.082;5.066;2022-07-30T10:47:19;101860.47;;;30.71;33.99
65760;BME280;52496;51.082;5.066;2022-07-30T10:50:13;101863.75;;;30.78;33.08
65760;BME280;52496;51.082;5.066;2022-07-30T10:53:00;101854.50;;;30.63;33.14
65760;BME280;52496;51.082;5.066;2022-07-30T10:55:34;101862.84;;;30.58;33.51
65760;BME280;52496;51.082;5.066;2022-07-30T10:58:11;101855.13;;;30.55;32.98
65760;BME280;52496;51.082;5.066;2022-07-30T11:03:26;101864.31;;;30.51;34.44
65760;BME280;52496;51.082;5.066;2022-07-30T11:08:46;101864.56;;;30.30;33.45
65760;BME280;52496;51.082;5.066;2022-07-30T11:11:41;101860.78;;;30.21;33.89
65760;BME280;52496;51.082;5.066;2022-07-30T11:14:13;101852.16;;;30.28;33.84
65760;BME280;52496;51.082;5.066;2022-07-30T11:19:17;101849.41;;;30.71;33.64
65760;BME280;52496;51.082;5.066;2022-07-30T11:22:22;101846.31;;;30.77;34.23
65760;BME280;52496;51.082;5.066;2022-07-30T11:24:54;101846.50;;;30.86;33.78
65760;BME280;52496;51.082;5.066;2022-07-30T11:27:43;101847.94;;;30.83;33.51
65760;BME280;52496;51.082;5.066;2022-07-30T11:32:56;101851.19;;;30.85;32.41
65760;BME280;52496;51.082;5.066;2022-07-30T11:36:04;101845.09;;;30.64;32.91
65760;BME280;52496;51.082;5.066;2022-07-30T11:38:58;101849.78;;;30.88;33.57
65760;BME280;52496;51.082;5.066;2022-07-30T11:41:29;101837.84;;;31.12;32.52
65760;BME280;52496;51.082;5.066;2022-07-30T11:44:24;101844.34;;;31.21;32.24
65760;BME280;52496;51.082;5.066;2022-07-30T11:46:55;101846.28;;;31.20;32.75
65760;BME280;52496;51.082;5.066;2022-07-30T11:49:33;101836.13;;;31.16;33.08
65760;BME280;52496;51.082;5.066;2022-07-30T11:52:04;101838.50;;;31.03;32.97
65760;BME280;52496;51.082;5.066;2022-07-30T11:54:53;101839.81;;;30.92;34.18
65760;BME280;52496;51.082;5.066;2022-07-30T11:57:39;101833.53;;;30.87;33.33
65760;BME280;52496;51.082;5.066;2022-07-30T12:00:10;101835.31;;;30.96;33.29
65760;BME280;52496;51.082;5.066;2022-07-30T12:02:41;101835.75;;;31.03;33.06
65760;BME280;52496;51.082;5.066;2022-07-30T12:05:11;101830.22;;;31.03;32.83
65760;BME280;52496;51.082;5.066;2022-07-30T12:07:42;101823.28;;;31.06;33.34
65760;BME280;52496;51.082;5.066;2022-07-30T12:10:18;101834.56;;;31.09;33.20
65760;BME280;52496;51.082;5.066;2022-07-30T12:12:49;101833.81;;;31.04;32.47
65760;BME280;52496;51.082;5.066;2022-07-30T12:15:33;101835.53;;;31.00;32.27
65760;BME280;52496;51.082;5.066;2022-07-30T12:18:04;101830.75;;;31.05;32.31
65760;BME280;52496;51.082;5.066;2022-07-30T12:20:35;101828.78;;;31.25;32.50
65760;BME280;52496;51.082;5.066;2022-07-30T12:23:13;101829.53;;;31.49;31.60
65760;BME280;52496;51.082;5.066;2022-07-30T12:25:43;101832.97;;;31.74;31.61
65760;BME280;52496;51.082;5.066;2022-07-30T12:28:25;101830.09;;;32.12;31.05
65760;BME280;52496;51.082;5.066;2022-07-30T12:30:56;101834.69;;;32.16;29.82
65760;BME280;52496;51.082;5.066;2022-07-30T12:33:28;101827.13;;;32.22;30.58
65760;BME280;52496;51.082;5.066;2022-07-30T12:35:59;101820.97;;;32.53;30.32
65760;BME280;52496;51.082;5.066;2022-07-30T12:38:42;101817.41;;;32.88;28.62
65760;BME280;52496;51.082;5.066;2022-07-30T12:41:14;101824.97;;;33.10;28.85
65760;BME280;52496;51.082;5.066;2022-07-30T12:43:47;101821.00;;;33.25;29.35
65760;BME280;52496;51.082;5.066;2022-07-30T12:46:22;101820.31;;;33.42;29.09
65760;BME280;52496;51.082;5.066;2022-07-30T12:48:55;101823.66;;;33.30;28.38
65760;BME280;52496;51.082;5.066;2022-07-30T12:51:30;101820.63;;;32.82;29.15
65760;BME280;52496;51.082;5.066;2022-07-30T12:54:15;101819.53;;;32.41;29.56
65760;BME280;52496;51.082;5.066;2022-07-30T12:57:04;101807.88;;;32.44;29.75
65760;BME280;52496;51.082;5.066;2022-07-30T12:59:34;101812.78;;;32.48;29.63
65760;BME280;52496;51.082;5.066;2022-07-30T13:02:07;101796.47;;;32.60;29.78
65760;BME280;52496;51.082;5.066;2022-07-30T13:04:50;101795.75;;;32.54;28.87
65760;BME280;52496;51.082;5.066;2022-07-30T13:07:20;101799.63;;;32.67;28.70
65760;BME280;52496;51.082;5.066;2022-07-30T13:10:08;101795.41;;;32.70;28.89
65760;BME280;52496;51.082;5.066;2022-07-30T13:12:39;101802.50;;;32.62;29.34
65760;BME280;52496;51.082;5.066;2022-07-30T13:15:19;101803.72;;;32.56;28.63
65760;BME280;52496;51.082;5.066;2022-07-30T13:17:49;101801.72;;;32.48;28.83
65760;BME280;52496;51.082;5.066;2022-07-30T13:20:20;101801.06;;;32.37;28.40
65760;BME280;52496;51.082;5.066;2022-07-30T13:22:51;101789.41;;;32.26;28.70
65760;BME280;52496;51.082;5.066;2022-07-30T13:25:21;101787.66;;;32.30;28.94
65760;BME280;52496;51.082;5.066;2022-07-30T13:27:51;101787.34;;;32.46;28.77
65760;BME280;52496;51.082;5.066;2022-07-30T13:30:22;101789.47;;;32.62;29.48
65760;BME280;52496;51.082;5.066;2022-07-30T13:32:52;101786.63;;;32.90;29.18
65760;BME280;52496;51.082;5.066;2022-07-30T13:35:23;101783.31;;;33.02;29.52
65760;BME280;52496;51.082;5.066;2022-07-30T13:37:53;101782.00;;;33.22;29.36
65760;BME280;52496;51.082;5.066;2022-07-30T13:40:28;101784.97;;;33.25;28.16